Terminal Aerodrome Forecast
Issued by NWS

Home | Current Version | Previous Version | Text Only | Print | Product List | Glossary On
Versions: 1 2 3 4 5 6 7 8 9 10 11 12 13 14 15 16 17 18 19 20 21 22 23 24 25 26 27 28 29 30 31 32 33 34 35 36 37 38 39 40 41 42 43 44 45 46 47 48
000
FTUS41 KBOX 240300 AAA
TAFACK
TAF AMD
KACK 240300Z 2403/2424 20017KT 3SM BR BKN003 WS020/24045KT
     FM240500 20017KT 2SM BR BKN003 WS020/24045KT
     FM241500 22019KT 3SM -RA BR VCTS BKN008CB
     FM241800 22018KT 3SM BR VCSH BKN008
     FM242000 24014KT P6SM BKN080
     FM242200 24011KT P6SM SCT140=

USA.gov is the U.S. government's official web portal to all federal, state and local government web resources and services.